createdAt,value
2023-02-04T00:00:43.345Z,1.08
2023-02-04T00:03:11.911Z,1.50
2023-02-04T00:05:42.705Z,1.15
2023-02-04T00:08:11.718Z,1.20
2023-02-04T00:10:41.741Z,1.10
2023-02-04T00:13:10.118Z,1.08
2023-02-04T00:15:38.795Z,1.00
2023-02-04T00:18:09.901Z,1.00
2023-02-04T00:20:39.522Z,0.90
2023-02-04T00:23:08.066Z,0.80
2023-02-04T00:25:37.659Z,0.80
2023-02-04T00:28:06.549Z,0.98
2023-02-04T00:30:35.324Z,0.90
2023-02-04T00:33:04.072Z,0.70
2023-02-04T00:35:33.945Z,0.80
2023-02-04T00:38:02.553Z,0.70
2023-02-04T00:40:32.560Z,0.68
2023-02-04T00:43:03.376Z,0.90
2023-02-04T00:45:32.156Z,0.73
2023-02-04T00:48:00.802Z,0.70
2023-02-04T00:50:29.756Z,0.95
2023-02-04T00:53:02.516Z,0.88
2023-02-04T00:55:31.053Z,0.90
2023-02-04T00:58:00.033Z,1.02
2023-02-04T01:00:28.878Z,0.85
2023-02-04T01:02:58.010Z,0.75
2023-02-04T01:05:26.934Z,0.95
2023-02-04T01:07:55.846Z,0.80
2023-02-04T01:10:26.984Z,0.80
2023-02-04T01:12:55.522Z,0.90
2023-02-04T01:15:24.261Z,0.80
2023-02-04T01:17:52.614Z,0.82
2023-02-04T01:20:21.100Z,0.80
2023-02-04T01:22:49.715Z,0.90
2023-02-04T01:25:19.569Z,0.80
2023-02-04T01:27:49.630Z,0.80
2023-02-04T01:30:18.347Z,0.88
2023-02-04T01:32:47.023Z,0.73
2023-02-04T01:35:15.694Z,0.93
2023-02-04T01:37:44.093Z,0.85
2023-02-04T01:40:13.907Z,0.60
2023-02-04T01:42:42.619Z,0.80
2023-02-04T01:45:13.420Z,0.80
2023-02-04T01:47:43.694Z,0.82
2023-02-04T01:50:14.975Z,1.08
2023-02-04T01:52:44.519Z,0.68
2023-02-04T01:55:18.041Z,1.00
2023-02-04T01:57:49.170Z,0.70
2023-02-04T02:00:25.805Z,0.80
2023-02-04T02:02:56.339Z,0.90
2023-02-04T02:05:27.614Z,1.00
2023-02-04T02:07:59.555Z,1.10
2023-02-04T02:10:28.954Z,0.77
2023-02-04T02:12:58.502Z,0.90
2023-02-04T02:15:29.965Z,0.80
2023-02-04T02:17:58.393Z,0.90
2023-02-04T02:20:29.990Z,0.60
2023-02-04T02:23:08.098Z,0.80
2023-02-04T02:25:38.457Z,1.00
2023-02-04T02:28:13.944Z,0.90
2023-02-04T02:30:45.997Z,1.02
2023-02-04T02:33:17.615Z,1.00
2023-02-04T02:35:49.911Z,1.02
2023-02-04T02:38:21.256Z,0.70
2023-02-04T02:40:52.974Z,1.20
2023-02-04T02:43:25.999Z,0.95
2023-02-04T02:45:58.999Z,1.13
2023-02-04T02:48:27.837Z,0.70
2023-02-04T02:50:56.528Z,1.00
2023-02-04T02:53:25.122Z,0.88
2023-02-04T02:55:56.644Z,1.10
2023-02-04T02:58:29.926Z,1.02
2023-02-04T03:00:59.022Z,1.13
2023-02-04T03:03:29.761Z,1.00
2023-02-04T03:06:03.740Z,1.13
2023-02-04T03:08:32.333Z,0.95
2023-02-04T03:11:02.758Z,1.15
2023-02-04T03:13:31.314Z,1.25
2023-02-04T03:16:00.236Z,1.00
2023-02-04T03:18:29.057Z,1.27
2023-02-04T03:20:59.859Z,1.30
2023-02-04T03:23:29.206Z,1.00
2023-02-04T03:25:57.967Z,1.00
2023-02-04T03:28:28.299Z,1.30
2023-02-04T03:30:57.211Z,1.20
2023-02-04T03:33:32.009Z,1.10
2023-02-04T03:36:00.793Z,1.30
2023-02-04T03:38:29.818Z,1.63
2023-02-04T03:40:58.453Z,1.17
2023-02-04T03:43:35.926Z,1.35
2023-02-04T03:46:04.551Z,1.20
2023-02-04T03:48:33.580Z,1.40
2023-02-04T03:51:02.995Z,1.10
2023-02-04T03:53:31.547Z,1.00
2023-02-04T03:56:00.138Z,0.98
2023-02-04T03:58:28.707Z,1.35
2023-02-04T04:00:58.994Z,1.23
2023-02-04T04:03:27.412Z,0.88
2023-02-04T04:05:57.164Z,1.23
2023-02-04T04:08:26.769Z,1.10
2023-02-04T04:10:55.481Z,1.15
2023-02-04T04:13:24.084Z,1.15
2023-02-04T04:15:52.439Z,1.25
2023-02-04T04:18:22.304Z,1.55
2023-02-04T04:20:51.056Z,1.20
2023-02-04T04:23:19.668Z,1.10
2023-02-04T04:25:48.180Z,1.70
2023-02-04T04:28:17.820Z,1.02
2023-02-04T04:30:46.650Z,1.20
2023-02-04T04:33:15.490Z,1.10
2023-02-04T04:35:46.425Z,1.05
2023-02-04T04:38:15.220Z,1.10
2023-02-04T04:40:44.120Z,1.17
2023-02-04T04:43:12.668Z,0.90
2023-02-04T04:45:41.582Z,1.10
2023-02-04T04:48:11.224Z,1.10
2023-02-04T04:50:39.728Z,1.13
2023-02-04T04:53:11.590Z,1.10
2023-02-04T04:55:40.087Z,1.15
2023-02-04T04:58:10.544Z,1.30
2023-02-04T05:00:39.290Z,1.20
2023-02-04T05:03:07.916Z,1.30
2023-02-04T05:05:40.940Z,1.00
2023-02-04T05:08:13.489Z,1.02
2023-02-04T05:10:44.572Z,0.80
2023-02-04T05:13:13.163Z,1.00
2023-02-04T05:15:42.720Z,1.00
2023-02-04T05:18:11.281Z,1.30
2023-02-04T05:20:39.907Z,1.20
2023-02-04T05:23:08.619Z,1.20
2023-02-04T05:25:40.075Z,1.30
2023-02-04T05:28:08.726Z,1.10
2023-02-04T05:30:37.153Z,1.08
2023-02-04T05:33:05.596Z,1.27
2023-02-04T05:35:34.053Z,1.20
2023-02-04T05:38:08.335Z,1.13
2023-02-04T05:40:39.483Z,1.25
2023-02-04T05:43:08.113Z,1.13
2023-02-04T05:45:37.768Z,1.33
2023-02-04T05:48:06.982Z,0.98
2023-02-04T05:50:37.738Z,0.85
2023-02-04T05:53:06.869Z,1.00
2023-02-04T05:55:35.567Z,1.10
2023-02-04T05:58:05.480Z,1.13
2023-02-04T06:00:34.419Z,1.02
2023-02-04T06:03:03.230Z,1.40
2023-02-04T06:05:33.847Z,0.98
2023-02-04T06:08:02.384Z,1.33
2023-02-04T06:10:31.302Z,0.93
2023-02-04T06:13:00.335Z,0.98
2023-02-04T06:15:30.057Z,1.08
2023-02-04T06:17:58.953Z,1.10
2023-02-04T06:20:30.020Z,0.80
2023-02-04T06:22:58.636Z,1.10
2023-02-04T06:25:27.331Z,1.17
2023-02-04T06:27:55.945Z,1.00
2023-02-04T06:30:24.601Z,1.20
2023-02-04T06:32:55.424Z,1.30
2023-02-04T06:35:24.262Z,1.10
2023-02-04T06:37:53.064Z,1.20
2023-02-04T06:40:21.740Z,1.20
2023-02-04T06:42:50.282Z,1.15
2023-02-04T06:45:18.867Z,1.05
2023-02-04T06:47:47.950Z,0.95
2023-02-04T06:50:19.075Z,1.13
2023-02-04T06:52:47.970Z,1.35
2023-02-04T06:55:17.255Z,1.05
2023-02-04T06:57:45.944Z,1.13
2023-02-04T07:00:15.587Z,1.08
2023-02-04T07:02:46.398Z,1.00
2023-02-04T07:05:14.751Z,1.35
2023-02-04T07:07:44.730Z,1.08
2023-02-04T07:10:13.697Z,1.10
2023-02-04T07:12:42.356Z,1.17
2023-02-04T07:15:12.324Z,1.15
2023-02-04T07:17:41.004Z,1.27
2023-02-04T07:20:11.599Z,1.10
2023-02-04T07:22:40.237Z,1.08
2023-02-04T07:25:11.755Z,1.08
2023-02-04T07:27:40.060Z,1.38
2023-02-04T07:30:10.433Z,1.17
2023-02-04T07:32:38.998Z,1.42
2023-02-04T07:35:08.546Z,1.20
2023-02-04T07:37:38.519Z,1.25
2023-02-04T07:40:07.949Z,1.33
2023-02-04T07:42:38.358Z,1.42
2023-02-04T07:45:07.775Z,1.23
2023-02-04T07:47:36.419Z,1.13
2023-02-04T07:50:05.392Z,1.35
2023-02-04T07:52:33.957Z,1.08
2023-02-04T07:55:02.396Z,1.55
2023-02-04T07:57:31.105Z,1.40
2023-02-04T08:00:01.001Z,1.30
2023-02-04T08:02:29.574Z,1.30
2023-02-04T08:04:58.004Z,1.00
2023-02-04T08:07:27.768Z,0.95
2023-02-04T08:09:57.606Z,1.30
2023-02-04T08:12:26.312Z,1.08
2023-02-04T08:14:55.139Z,1.20
2023-02-04T08:17:26.469Z,1.63
2023-02-04T08:19:58.838Z,1.20
2023-02-04T08:22:27.237Z,1.40
2023-02-04T08:24:55.667Z,1.40
2023-02-04T08:27:24.288Z,1.27
2023-02-04T08:29:52.792Z,1.15
2023-02-04T08:32:21.768Z,1.25
2023-02-04T08:34:51.705Z,1.40
2023-02-04T08:37:20.208Z,1.15
2023-02-04T08:39:49.451Z,1.00
2023-02-04T08:42:19.021Z,0.93
2023-02-04T08:44:47.617Z,1.30
2023-02-04T08:47:16.366Z,1.23
2023-02-04T08:49:45.982Z,1.40
2023-02-04T08:52:16.077Z,1.70
2023-02-04T08:54:45.633Z,1.13
2023-02-04T08:57:14.162Z,1.00
2023-02-04T08:59:42.926Z,1.10
2023-02-04T09:02:12.837Z,1.40
2023-02-04T09:04:41.430Z,1.30
2023-02-04T09:07:10.159Z,1.10
2023-02-04T09:09:40.257Z,1.20
2023-02-04T09:12:08.644Z,1.45
2023-02-04T09:14:37.306Z,1.10
2023-02-04T09:17:07.709Z,1.35
2023-02-04T09:19:37.512Z,1.35
2023-02-04T09:22:08.267Z,1.30
2023-02-04T09:24:36.735Z,1.23
2023-02-04T09:27:06.829Z,1.10
2023-02-04T09:29:45.588Z,1.50
2023-02-04T09:32:14.927Z,1.52
2023-02-04T09:34:46.138Z,1.45
2023-02-04T09:41:01.572Z,1.20
2023-02-04T10:09:01.197Z,1.08
2023-02-04T10:43:28.158Z,1.35
2023-02-04T10:46:09.625Z,1.00
2023-02-04T10:48:43.046Z,1.17
2023-02-04T11:23:56.079Z,1.02
2023-02-04T11:26:38.217Z,1.00
2023-02-04T11:29:43.567Z,1.25
2023-02-04T11:33:08.602Z,1.17
2023-02-04T11:35:37.421Z,1.40
2023-02-04T11:38:28.071Z,1.38
2023-02-04T11:41:18.426Z,1.30
2023-02-04T11:44:00.227Z,1.30
2023-02-04T11:46:38.280Z,1.50
2023-02-04T11:49:26.912Z,1.48
2023-02-04T11:55:47.228Z,2.03
2023-02-04T11:58:19.885Z,1.30
2023-02-04T12:00:53.441Z,1.55
2023-02-04T12:03:48.039Z,1.88
2023-02-04T12:09:57.180Z,1.85
2023-02-04T12:12:28.929Z,1.60
2023-02-04T12:15:24.232Z,1.60
2023-02-04T12:18:17.108Z,1.35
2023-02-04T12:21:21.318Z,1.73
2023-02-04T12:23:52.007Z,1.17
2023-02-04T12:26:37.161Z,1.48
2023-02-04T12:29:24.321Z,1.80
2023-02-04T12:34:59.440Z,1.40
2023-02-04T12:44:16.852Z,1.83
2023-02-04T12:46:50.005Z,1.55
2023-02-04T12:56:29.645Z,1.60
2023-02-04T13:04:08.999Z,1.80
2023-02-04T13:06:37.574Z,2.08
2023-02-04T13:09:05.826Z,1.77
2023-02-04T13:11:35.612Z,1.75
2023-02-04T13:14:04.461Z,1.65
2023-02-04T13:16:33.087Z,1.70
2023-02-04T13:19:01.710Z,1.42
2023-02-04T13:21:31.525Z,1.50
2023-02-04T13:24:00.453Z,1.63
2023-02-04T13:26:29.030Z,1.73
2023-02-04T13:28:59.133Z,1.27
2023-02-04T13:31:28.566Z,1.45
2023-02-04T13:40:09.822Z,1.90
2023-02-04T13:42:38.495Z,1.88
2023-02-04T13:45:12.712Z,1.77
2023-02-04T13:47:41.305Z,1.90
2023-02-04T13:50:10.410Z,1.70
2023-02-04T13:52:39.027Z,1.80
2023-02-04T13:55:07.946Z,1.50
2023-02-04T13:57:37.780Z,1.85
2023-02-04T14:00:08.719Z,1.50
2023-02-04T14:02:37.874Z,2.00
2023-02-04T14:05:06.954Z,1.80
2023-02-04T14:07:36.088Z,1.60
2023-02-04T14:10:04.749Z,1.90
2023-02-04T14:12:33.236Z,2.00
2023-02-04T14:15:01.535Z,1.70
2023-02-04T14:17:31.678Z,1.63
2023-02-04T14:20:00.302Z,2.28
2023-02-04T14:22:29.031Z,1.75
2023-02-04T14:24:57.628Z,1.63
2023-02-04T14:27:26.127Z,1.63
2023-02-04T14:29:55.070Z,2.10
2023-02-04T14:32:23.692Z,1.90
2023-02-04T14:34:53.583Z,1.90
2023-02-04T14:37:21.997Z,1.80
2023-02-04T14:39:50.464Z,2.20
2023-02-04T14:42:19.253Z,1.42
2023-02-04T14:44:47.704Z,1.38
2023-02-04T14:47:16.290Z,1.90
2023-02-04T14:49:44.868Z,1.48
2023-02-04T14:52:14.938Z,1.77
2023-02-04T14:54:43.427Z,2.35
2023-02-04T14:57:12.195Z,2.58
2023-02-04T14:59:40.713Z,2.13
2023-02-04T15:02:09.625Z,2.10
2023-02-04T15:04:38.069Z,1.70
2023-02-04T15:07:06.712Z,2.10
2023-02-04T15:09:36.764Z,2.10
2023-02-04T15:12:06.262Z,2.92
2023-02-04T15:14:35.106Z,2.72
2023-02-04T15:17:04.957Z,2.22
2023-02-04T15:19:33.534Z,2.13
2023-02-04T15:22:02.235Z,2.17
2023-02-04T15:24:30.820Z,2.10
2023-02-04T15:27:00.826Z,1.80
2023-02-04T15:29:30.653Z,2.35
2023-02-04T15:31:59.191Z,2.58
2023-02-04T15:34:27.862Z,2.42
2023-02-04T15:36:56.654Z,2.72
2023-02-04T15:39:25.274Z,2.67
2023-02-04T15:41:53.950Z,3.00
2023-02-04T15:44:24.583Z,3.08
2023-02-04T15:46:54.484Z,4.20
2023-02-04T15:49:23.209Z,3.33
2023-02-04T15:51:51.858Z,2.90
2023-02-04T15:54:20.452Z,3.65
2023-02-04T15:56:48.976Z,3.47
2023-02-04T15:59:17.669Z,2.35
2023-02-04T16:02:01.244Z,2.45
2023-02-04T16:04:30.036Z,1.40
2023-02-04T16:06:59.784Z,1.98
2023-02-04T16:09:28.419Z,1.00
2023-02-04T16:11:58.013Z,2.08
2023-02-04T16:14:26.576Z,1.73
2023-02-04T16:16:57.657Z,3.03
2023-02-04T16:19:26.200Z,1.75
2023-02-04T16:21:54.781Z,1.30
2023-02-04T16:24:23.276Z,2.65
2023-02-04T16:26:51.751Z,2.35
2023-02-04T16:29:21.575Z,3.05
2023-02-04T16:31:50.729Z,2.38
2023-02-04T16:34:20.848Z,3.00
2023-02-04T16:36:49.504Z,1.80
2023-02-04T16:39:18.176Z,1.80
2023-02-04T16:41:46.943Z,1.50
2023-02-04T16:44:15.861Z,2.22
2023-02-04T16:46:44.571Z,1.92
2023-02-04T16:49:13.261Z,1.50
2023-02-04T16:51:43.305Z,1.50
2023-02-04T16:54:11.905Z,1.58
2023-02-04T16:56:40.405Z,2.13
2023-02-04T16:59:09.107Z,2.17
2023-02-04T17:01:37.760Z,2.30
2023-02-04T17:04:06.751Z,1.70
2023-02-04T17:06:36.053Z,2.20
2023-02-04T17:09:06.605Z,2.15
2023-02-04T17:11:35.155Z,2.40
2023-02-04T17:14:06.637Z,2.38
2023-02-04T17:16:35.555Z,2.47
2023-02-04T17:19:04.858Z,2.72
2023-02-04T17:21:33.644Z,2.10
2023-02-04T17:24:04.222Z,2.50
2023-02-04T17:26:39.121Z,3.45
2023-02-04T17:29:09.186Z,4.63
2023-02-04T17:31:38.884Z,4.40
2023-02-04T17:34:08.098Z,7.82
2023-02-04T17:36:36.990Z,7.07
2023-02-04T17:39:06.252Z,8.88
2023-02-04T17:41:36.684Z,4.57
2023-02-04T17:44:05.428Z,7.32
2023-02-04T17:46:34.705Z,16.20
2023-02-04T17:49:03.541Z,7.53
2023-02-04T17:51:32.246Z,8.48
2023-02-04T17:54:01.195Z,8.45
2023-02-04T17:56:29.849Z,7.07
2023-02-04T17:59:00.041Z,5.88
2023-02-04T18:01:29.944Z,6.40
2023-02-04T18:03:59.868Z,5.50
2023-02-04T18:06:30.026Z,6.88
2023-02-04T18:09:02.405Z,7.00
2023-02-04T18:11:33.201Z,7.75
2023-02-04T18:14:14.225Z,8.35
2023-02-04T18:16:43.261Z,7.75
2023-02-04T18:19:19.552Z,8.45
2023-02-04T18:21:48.769Z,7.10
2023-02-04T18:24:20.022Z,8.18
2023-02-04T18:26:50.614Z,6.18
2023-02-04T18:29:34.394Z,7.30
2023-02-04T18:32:08.123Z,8.95
2023-02-04T18:34:38.856Z,10.18
2023-02-04T18:37:30.734Z,8.27
2023-02-04T18:40:19.971Z,6.35
2023-02-04T18:42:50.296Z,14.65
2023-02-04T18:45:26.873Z,7.70
2023-02-04T18:47:57.742Z,10.70
2023-02-04T18:50:30.201Z,13.18
2023-02-04T18:53:03.291Z,9.65
2023-02-04T18:55:36.041Z,11.43
2023-02-04T18:58:28.582Z,11.95
2023-02-04T19:01:02.192Z,18.90
2023-02-04T19:03:37.759Z,28.98
2023-02-04T19:06:26.067Z,14.27
2023-02-04T19:08:56.466Z,11.07
2023-02-04T19:11:35.428Z,13.27
2023-02-04T19:14:15.661Z,18.58
2023-02-04T19:16:47.253Z,18.00
2023-02-04T19:19:38.868Z,14.50
2023-02-04T19:22:20.685Z,14.15
2023-02-04T19:24:49.301Z,15.02
2023-02-04T19:27:31.529Z,17.10
2023-02-04T19:30:02.128Z,16.70
2023-02-04T19:32:41.808Z,15.52
2023-02-04T19:35:19.171Z,12.75
2023-02-04T19:37:54.088Z,12.68
2023-02-04T19:40:32.208Z,9.65
2023-02-04T19:43:18.312Z,9.55
2023-02-04T19:45:48.136Z,9.85
2023-02-04T19:48:21.886Z,10.50
2023-02-04T19:50:54.226Z,13.63
2023-02-04T19:53:26.226Z,11.55
2023-02-04T19:55:55.822Z,10.48
2023-02-04T19:58:26.964Z,14.25
2023-02-04T20:01:01.290Z,19.83
2023-02-04T20:03:37.196Z,20.10
2023-02-04T20:06:34.500Z,10.68
2023-02-04T20:09:08.079Z,8.73
2023-02-04T20:11:45.237Z,15.63
2023-02-04T20:14:30.190Z,31.50
2023-02-04T20:17:01.164Z,46.28
2023-02-04T20:19:38.065Z,45.15
2023-02-04T20:22:39.883Z,21.98
2023-02-04T20:25:42.344Z,25.83
2023-02-04T20:28:30.300Z,13.82
2023-02-04T20:31:02.012Z,10.95
2023-02-04T20:33:38.001Z,27.10
2023-02-04T20:36:36.037Z,24.65
2023-02-04T20:39:39.015Z,22.95
2023-02-04T20:42:26.194Z,14.90
2023-02-04T20:44:54.993Z,11.18
2023-02-04T20:47:25.274Z,13.23
2023-02-04T20:49:57.671Z,14.52
2023-02-04T20:53:16.669Z,13.52
2023-02-04T20:55:51.440Z,14.07
2023-02-04T20:58:23.085Z,15.77
2023-02-04T21:00:54.326Z,13.55
2023-02-04T21:03:29.526Z,13.82
2023-02-04T21:06:00.609Z,16.38
2023-02-04T21:08:42.060Z,14.00
2023-02-04T21:11:15.385Z,14.52
2023-02-04T21:13:44.203Z,15.48
2023-02-04T21:16:13.849Z,14.90
2023-02-04T21:18:42.546Z,11.68
2023-02-04T21:21:11.858Z,11.75
2023-02-04T21:23:40.899Z,14.90
2023-02-04T21:26:10.772Z,17.80
2023-02-04T21:28:40.873Z,16.35
2023-02-04T21:31:11.809Z,15.43
2023-02-04T21:33:40.473Z,16.80
2023-02-04T21:36:10.412Z,16.98
2023-02-04T21:38:39.171Z,15.38
2023-02-04T21:41:09.069Z,16.60
2023-02-04T21:43:39.054Z,14.77
2023-02-04T21:46:09.335Z,15.20
2023-02-04T21:48:37.935Z,16.90
2023-02-04T21:51:07.320Z,14.35
2023-02-04T21:53:36.282Z,15.35
2023-02-04T21:56:11.661Z,16.08
2023-02-04T21:58:40.346Z,16.23
2023-02-04T22:01:11.535Z,16.55
2023-02-04T22:03:40.358Z,16.45
2023-02-04T22:06:10.186Z,15.15
2023-02-04T22:08:40.849Z,13.32
2023-02-04T22:11:09.425Z,12.13
2023-02-04T22:13:38.027Z,11.63
2023-02-04T22:16:06.683Z,14.95
2023-02-04T22:18:36.780Z,13.35
2023-02-04T22:21:07.651Z,13.38
2023-02-04T22:23:36.299Z,14.45
2023-02-04T22:26:05.304Z,12.10
2023-02-04T22:28:34.237Z,11.95
2023-02-04T22:31:03.228Z,13.25
2023-02-04T22:33:31.893Z,12.95
2023-02-04T22:36:02.069Z,16.25
2023-02-04T22:38:30.638Z,12.52
2023-02-04T22:40:59.181Z,12.82
2023-02-04T22:43:27.672Z,13.00
2023-02-04T22:45:56.409Z,13.55
2023-02-04T22:48:25.523Z,13.85
2023-02-04T22:50:55.662Z,14.27
2023-02-04T22:53:25.755Z,14.95
2023-02-04T22:55:54.280Z,14.13
2023-02-04T22:58:23.063Z,11.35
2023-02-04T23:00:51.580Z,10.90
2023-02-04T23:03:20.117Z,12.60
2023-02-04T23:05:49.854Z,12.88
2023-02-04T23:08:18.626Z,11.15
2023-02-04T23:10:48.887Z,11.60
2023-02-04T23:13:18.067Z,9.55
2023-02-04T23:15:46.794Z,9.15
2023-02-04T23:18:15.387Z,8.75
2023-02-04T23:20:44.191Z,10.25
2023-02-04T23:23:17.768Z,10.45
2023-02-04T23:25:48.887Z,9.15
2023-02-04T23:28:18.525Z,9.55
2023-02-04T23:30:47.294Z,10.13
2023-02-04T23:33:17.200Z,11.00
2023-02-04T23:35:46.898Z,13.18
2023-02-04T23:38:15.703Z,12.00
2023-02-04T23:40:45.375Z,9.52
2023-02-04T23:43:15.640Z,9.13
2023-02-04T23:45:45.788Z,8.35
2023-02-04T23:48:14.416Z,9.70
2023-02-04T23:50:43.395Z,9.32
2023-02-04T23:53:12.005Z,9.05
2023-02-04T23:55:40.594Z,9.48
2023-02-04T23:58:09.242Z,8.50
